Time;durP1;ratioP1;P1;durP2;ratioP2;P2;SDS_P1;SDS_P2;PMS_P1;PMS_P2;Temp;Humidity;BMP_temperature;BMP_pressure;BME280_temperature;BME280_humidity;BME280_pressure;Samples;Min_cycle;Max_cycle;Signal;HPM_P1;HPM_P2
2024/01/30 00:01:47;;;;;;;4.63;1.63;;;;;;;5.77;57.94;96815.00;5012384;28;20637;-76
2024/01/30 00:04:12;;;;;;;2.63;1.60;;;;;;;5.80;57.81;96817.41;5005009;28;20186;-76
2024/01/30 00:06:37;;;;;;;1.97;1.50;;;;;;;5.80;57.73;96814.00;5030960;28;20557;-77
2024/01/30 00:09:03;;;;;;;1.83;1.33;;;;;;;5.80;58.15;96816.56;5029515;28;20252;-76
2024/01/30 00:11:28;;;;;;;1.63;1.50;;;;;;;5.80;58.13;96814.00;5012228;28;20210;-76
2024/01/30 00:13:56;;;;;;;2.17;1.97;;;;;;;5.80;58.33;96821.72;5012796;28;20230;-76
2024/01/30 00:16:23;;;;;;;2.27;1.60;;;;;;;5.84;57.86;96829.22;5012940;28;20207;-76
2024/01/30 00:18:49;;;;;;;2.27;2.03;;;;;;;5.78;58.35;96823.56;5012614;28;20276;-77
2024/01/30 00:21:14;;;;;;;3.67;1.67;;;;;;;5.75;58.11;96824.59;4998286;28;20669;-76
2024/01/30 00:23:39;;;;;;;4.50;1.97;;;;;;;5.77;58.09;96821.91;5009781;28;20190;-76
2024/01/30 00:26:06;;;;;;;2.70;1.70;;;;;;;5.77;58.04;96830.47;5030417;28;20186;-76
2024/01/30 00:28:31;;;;;;;21.77;9.13;;;;;;;5.76;58.26;96839.13;5030602;28;20690;-76
2024/01/30 00:30:56;;;;;;;5.07;3.33;;;;;;;5.72;57.96;96834.22;5012115;28;20233;-77
2024/01/30 00:33:21;;;;;;;3.10;2.47;;;;;;;5.70;58.07;96839.47;5030021;28;20214;-77
2024/01/30 00:35:47;;;;;;;9.60;5.10;;;;;;;5.73;58.13;96833.31;5012380;28;20236;-77
2024/01/30 00:38:12;;;;;;;3.70;2.60;;;;;;;5.65;58.19;96826.84;5030194;28;20186;-76
2024/01/30 00:40:37;;;;;;;4.17;2.33;;;;;;;5.66;58.01;96828.50;5029760;28;20310;-76
2024/01/30 00:43:03;;;;;;;4.43;2.20;;;;;;;5.64;58.11;96825.16;5028956;28;20644;-76
2024/01/30 00:45:28;;;;;;;1.83;1.70;;;;;;;5.61;58.22;96825.34;5028916;28;20182;-76
2024/01/30 00:47:54;;;;;;;3.67;2.03;;;;;;;5.54;58.82;96826.59;5005620;28;20483;-77
2024/01/30 00:50:19;;;;;;;2.87;2.20;;;;;;;5.52;58.93;96825.03;5028545;28;20281;-77
2024/01/30 00:52:45;;;;;;;4.07;2.33;;;;;;;5.40;59.69;96822.22;5030375;28;20195;-77
2024/01/30 00:55:10;;;;;;;3.00;2.10;;;;;;;5.42;59.77;96823.88;5028466;28;20293;-76
2024/01/30 00:57:36;;;;;;;3.30;2.37;;;;;;;5.32;60.75;96831.31;5029339;28;20191;-76
2024/01/30 01:00:02;;;;;;;3.17;2.70;;;;;;;5.25;61.53;96829.97;5028363;28;20182;-77
2024/01/30 01:02:28;;;;;;;3.30;2.27;;;;;;;5.24;61.38;96824.00;5006351;28;20636;-77
2024/01/30 01:04:53;;;;;;;2.43;1.97;;;;;;;5.26;61.52;96829.88;5020377;28;20233;-76
2024/01/30 01:07:18;;;;;;;2.07;1.70;;;;;;;5.31;61.36;96822.75;5030174;28;20193;-76
2024/01/30 01:09:44;;;;;;;2.13;1.93;;;;;;;5.40;61.07;96827.38;5029687;28;20186;-77
2024/01/30 01:12:09;;;;;;;3.87;2.07;;;;;;;5.51;60.51;96826.78;5028771;28;20210;-76
2024/01/30 01:14:36;;;;;;;3.10;1.57;;;;;;;5.63;60.13;96831.25;5012254;28;20245;-76
2024/01/30 01:17:01;;;;;;;6.70;2.10;;;;;;;5.74;59.73;96828.06;5011707;28;20195;-77
2024/01/30 01:19:26;;;;;;;2.17;1.67;;;;;;;5.76;59.32;96820.25;5001741;28;20195;-76
2024/01/30 01:21:52;;;;;;;2.27;1.57;;;;;;;5.73;59.92;96821.25;5011653;28;20606;-76
2024/01/30 01:24:18;;;;;;;3.23;1.90;;;;;;;5.74;59.74;96825.47;4998505;28;20210;-76
2024/01/30 01:26:43;;;;;;;2.80;1.90;;;;;;;5.76;59.72;96828.00;5033555;28;20214;-76
2024/01/30 01:29:11;;;;;;;3.23;2.00;;;;;;;5.67;59.54;96821.63;5033535;28;20189;-76
2024/01/30 01:31:43;;;;;;;2.47;2.27;;;;;;;5.59;59.97;96823.78;4995599;28;20605;-77
2024/01/30 01:34:09;;;;;;;3.37;1.70;;;;;;;5.57;60.01;96821.31;5009681;28;20202;-76
2024/01/30 01:36:34;;;;;;;2.67;1.80;;;;;;;5.51;60.50;96819.06;5008973;28;20194;-77
2024/01/30 01:39:00;;;;;;;3.50;1.80;;;;;;;5.51;60.32;96815.66;5033305;28;20657;-76
2024/01/30 01:41:30;;;;;;;3.67;1.70;;;;;;;5.40;60.70;96819.66;4999180;28;20717;-77
2024/01/30 01:43:55;;;;;;;2.17;1.50;;;;;;;5.29;60.59;96823.72;4999081;28;20178;-76
2024/01/30 01:46:20;;;;;;;3.97;1.80;;;;;;;5.20;61.07;96819.91;5033141;28;20199;-77
2024/01/30 01:48:46;;;;;;;2.40;1.80;;;;;;;5.11;61.93;96821.22;5015573;28;20679;-76
2024/01/30 01:51:12;;;;;;;3.77;1.60;;;;;;;5.05;62.42;96821.59;5002896;28;20236;-76
2024/01/30 01:53:37;;;;;;;2.43;1.63;;;;;;;4.99;62.79;96821.91;5015022;28;20190;-76
2024/01/30 01:56:03;;;;;;;2.97;1.60;;;;;;;4.96;62.97;96805.81;5005839;28;20187;-76
2024/01/30 01:58:29;;;;;;;2.20;1.77;;;;;;;4.87;63.82;96811.44;4992753;28;20224;-75
2024/01/30 02:00:55;;;;;;;3.67;1.80;;;;;;;4.86;63.37;96814.91;5030313;28;20225;-75
2024/01/30 02:03:21;;;;;;;1.97;1.77;;;;;;;4.83;63.60;96815.91;5013251;28;20282;-75
2024/01/30 02:05:46;;;;;;;2.10;1.70;;;;;;;4.80;63.49;96809.19;5006135;28;20258;-76
2024/01/30 02:08:12;;;;;;;1.90;1.70;;;;;;;4.79;63.45;96807.53;5031730;28;20198;-75
2024/01/30 02:10:37;;;;;;;2.10;1.80;;;;;;;4.81;63.64;96813.41;5031074;28;20700;-75
2024/01/30 02:13:02;;;;;;;1.70;1.60;;;;;;;4.81;64.03;96817.75;5009705;28;20186;-75
2024/01/30 02:15:29;;;;;;;2.37;1.87;;;;;;;4.80;64.03;96821.22;5014833;28;20205;-75
2024/01/30 02:17:54;;;;;;;3.27;1.90;;;;;;;4.75;64.19;96818.88;5030913;28;20183;-76
2024/01/30 02:20:20;;;;;;;2.73;1.60;;;;;;;4.73;64.44;96822.47;5013286;28;20208;-76
2024/01/30 02:22:46;;;;;;;1.97;1.63;;;;;;;4.72;64.34;96821.63;5012842;28;20244;-76
2024/01/30 02:25:11;;;;;;;2.40;1.67;;;;;;;4.71;65.04;96819.97;5010694;28;20657;-76
2024/01/30 02:27:36;;;;;;;2.83;2.53;;;;;;;4.69;64.62;96824.38;5007902;28;20187;-76
2024/01/30 02:30:02;;;;;;;2.03;1.60;;;;;;;4.71;64.73;96832.84;5009457;28;20187;-76
2024/01/30 02:32:27;;;;;;;2.97;1.67;;;;;;;4.73;64.80;96820.72;4998395;28;20195;-76
2024/01/30 02:34:53;;;;;;;2.57;1.80;;;;;;;4.73;64.63;96825.88;5014266;28;20604;-75
2024/01/30 02:37:18;;;;;;;3.20;1.60;;;;;;;4.73;64.35;96828.44;5014616;28;20224;-76
2024/01/30 02:39:43;;;;;;;2.67;1.80;;;;;;;4.74;64.74;96824.94;5013987;28;20301;-76
2024/01/30 02:42:08;;;;;;;2.33;1.80;;;;;;;4.72;64.37;96819.06;5023919;28;20280;-76
2024/01/30 02:44:34;;;;;;;2.17;1.60;;;;;;;4.71;64.73;96822.53;5032276;28;20217;-76
2024/01/30 02:46:59;;;;;;;1.97;1.63;;;;;;;4.66;64.63;96827.09;5008332;28;20243;-76
2024/01/30 02:49:24;;;;;;;3.43;1.80;;;;;;;4.68;64.72;96830.44;5007556;28;20264;-76
2024/01/30 02:51:51;;;;;;;1.80;1.60;;;;;;;4.65;64.78;96828.00;5030637;28;20640;-76
2024/01/30 02:54:16;;;;;;;3.57;1.83;;;;;;;4.58;65.33;96830.97;5004037;28;20206;-75
2024/01/30 02:56:41;;;;;;;3.20;2.17;;;;;;;4.57;65.32;96827.56;5032050;28;20182;-76
2024/01/30 02:59:07;;;;;;;2.10;1.80;;;;;;;4.53;65.65;96829.47;5030804;28;20182;-76
2024/01/30 03:01:32;;;;;;;2.30;1.90;;;;;;;4.51;65.34;96825.34;5005013;28;20256;-76
2024/01/30 03:03:57;;;;;;;3.50;1.93;;;;;;;4.46;65.85;96822.16;5030664;28;20214;-77
2024/01/30 03:06:23;;;;;;;1.87;1.53;;;;;;;4.44;65.50;96817.09;5013787;28;20297;-77
2024/01/30 03:08:48;;;;;;;3.63;1.90;;;;;;;4.50;65.85;96816.75;5026625;28;20196;-77
2024/01/30 03:11:13;;;;;;;1.97;1.73;;;;;;;4.50;65.65;96821.91;5035049;28;20213;-77
2024/01/30 03:13:38;;;;;;;1.67;1.57;;;;;;;4.55;65.49;96816.53;5028028;28;20197;-77
2024/01/30 03:16:04;;;;;;;2.70;1.80;;;;;;;4.51;65.37;96813.31;5030344;28;20212;-77
2024/01/30 03:18:29;;;;;;;3.93;1.63;;;;;;;4.49;65.43;96809.13;5031153;28;20193;-77
2024/01/30 03:20:55;;;;;;;2.13;1.60;;;;;;;4.49;65.22;96817.66;5012529;28;20250;-77
2024/01/30 03:23:20;;;;;;;2.70;1.70;;;;;;;4.44;65.74;96817.09;5030430;28;20213;-77
2024/01/30 03:25:45;;;;;;;2.77;1.53;;;;;;;4.46;65.58;96811.88;5031336;28;20175;-77
2024/01/30 03:28:11;;;;;;;2.60;1.70;;;;;;;4.46;65.65;96814.44;5031433;28;20213;-77
2024/01/30 03:30:36;;;;;;;2.63;1.70;;;;;;;4.40;66.28;96807.03;5030905;28;20251;-77
2024/01/30 03:33:02;;;;;;;2.03;1.80;;;;;;;4.51;65.53;96805.59;5030050;28;20664;-76
2024/01/30 03:35:27;;;;;;;2.47;1.93;;;;;;;4.53;65.81;96818.38;5013314;28;20201;-76
2024/01/30 03:37:52;;;;;;;2.43;1.80;;;;;;;4.56;66.04;96810.47;5029957;28;20696;-76
2024/01/30 03:40:18;;;;;;;2.03;1.83;;;;;;;4.57;65.84;96811.31;5006402;28;20210;-76
2024/01/30 03:42:43;;;;;;;1.97;1.63;;;;;;;4.55;65.82;96808.81;5031136;28;20191;-76
2024/01/30 03:45:08;;;;;;;3.37;1.77;;;;;;;4.54;65.68;96809.72;5013276;28;20178;-76
2024/01/30 03:47:34;;;;;;;4.27;1.67;;;;;;;4.55;66.26;96806.25;5012102;28;20186;-76
2024/01/30 03:49:59;;;;;;;2.97;1.77;;;;;;;4.48;65.82;96804.91;5030162;28;20668;-76
2024/01/30 03:52:24;;;;;;;1.63;1.50;;;;;;;4.48;66.15;96802.31;5030162;28;20193;-75
2024/01/30 03:54:50;;;;;;;2.70;1.83;;;;;;;4.48;66.36;96805.72;5006020;28;20199;-76
2024/01/30 03:57:15;;;;;;;3.67;1.83;;;;;;;4.53;66.59;96808.06;5029606;28;20188;-76
2024/01/30 03:59:43;;;;;;;4.23;1.60;;;;;;;4.62;66.11;96805.03;5012756;28;20185;-76
2024/01/30 04:02:10;;;;;;;1.77;1.37;;;;;;;4.63;65.72;96809.25;5012180;28;20585;-76
2024/01/30 04:04:36;;;;;;;2.80;1.90;;;;;;;4.58;65.64;96816.38;5015952;28;20225;-76
2024/01/30 04:07:02;;;;;;;1.97;1.40;;;;;;;4.66;66.06;96810.81;4998650;28;20183;-75
2024/01/30 04:09:28;;;;;;;4.37;1.93;;;;;;;4.65;65.56;96811.72;5012921;28;20196;-76
2024/01/30 04:11:53;;;;;;;3.03;1.40;;;;;;;4.77;65.88;96811.06;5004730;28;20289;-76
2024/01/30 04:14:19;;;;;;;2.57;1.50;;;;;;;4.87;65.03;96809.69;5013734;28;20285;-75
2024/01/30 04:16:44;;;;;;;3.50;1.77;;;;;;;5.03;64.62;96805.38;5003326;28;20241;-76
2024/01/30 04:19:09;;;;;;;2.93;1.70;;;;;;;5.18;64.16;96811.44;5029169;28;20238;-76
2024/01/30 04:21:35;;;;;;;1.90;1.60;;;;;;;5.25;63.68;96802.47;5029974;28;20229;-76
2024/01/30 04:24:00;;;;;;;2.17;1.97;;;;;;;5.29;63.61;96806.53;5030372;28;20182;-76
2024/01/30 04:26:25;;;;;;;2.57;1.67;;;;;;;5.28;63.85;96816.91;5030438;28;20189;-75
2024/01/30 04:28:51;;;;;;;2.00;1.80;;;;;;;5.25;63.94;96807.63;5030426;28;20179;-76
2024/01/30 04:31:16;;;;;;;2.73;1.63;;;;;;;5.36;63.43;96812.16;5010695;28;20203;-76
2024/01/30 04:33:41;;;;;;;3.13;1.63;;;;;;;5.36;63.07;96810.41;5002714;28;20201;-75
2024/01/30 04:36:10;;;;;;;2.00;1.73;;;;;;;5.37;63.48;96806.09;5012514;28;20190;-76
2024/01/30 04:38:35;;;;;;;2.23;1.70;;;;;;;5.38;63.07;96807.75;5008479;28;20190;-76
2024/01/30 04:41:00;;;;;;;2.33;1.50;;;;;;;5.34;63.08;96817.41;5029661;28;20260;-76
2024/01/30 04:43:26;;;;;;;2.40;1.60;;;;;;;5.35;63.15;96813.91;5012491;28;20284;-76
2024/01/30 04:45:52;;;;;;;2.27;1.70;;;;;;;5.47;62.50;96806.41;5024189;28;20175;-76
2024/01/30 04:48:17;;;;;;;2.50;1.57;;;;;;;5.45;62.67;96809.09;5030330;28;20598;-75
2024/01/30 04:50:42;;;;;;;2.37;1.80;;;;;;;5.43;62.47;96813.50;5010908;28;20230;-76
2024/01/30 04:53:07;;;;;;;2.53;1.50;;;;;;;5.51;62.27;96808.75;5028968;28;20185;-76
2024/01/30 04:55:33;;;;;;;2.13;1.67;;;;;;;5.61;61.83;96809.06;5012322;28;20233;-76
2024/01/30 04:57:58;;;;;;;2.90;1.80;;;;;;;5.66;61.61;96812.22;5002153;28;20579;-76
2024/01/30 05:00:23;;;;;;;4.13;1.80;;;;;;;5.68;61.73;96805.22;5033605;28;20905;-76
2024/01/30 05:02:49;;;;;;;1.63;1.53;;;;;;;5.69;61.81;96812.03;5016194;28;20186;-76
2024/01/30 05:05:14;;;;;;;2.10;1.70;;;;;;;5.73;61.39;96815.25;5032708;28;20182;-76
2024/01/30 05:07:41;;;;;;;3.93;1.67;;;;;;;5.73;61.33;96807.53;5016328;28;20178;-76
2024/01/30 05:10:06;;;;;;;3.47;1.77;;;;;;;5.71;61.57;96807.63;5008767;28;20852;-76
2024/01/30 05:12:32;;;;;;;4.33;2.07;;;;;;;5.69;61.88;96810.28;4999881;28;20210;-76
2024/01/30 05:14:57;;;;;;;2.33;1.70;;;;;;;5.59;61.74;96810.91;5009349;28;20205;-76
2024/01/30 05:17:22;;;;;;;3.67;1.70;;;;;;;5.48;61.86;96808.06;5032313;28;20202;-76
2024/01/30 05:19:48;;;;;;;2.50;1.97;;;;;;;5.38;62.62;96803.44;5032013;28;20178;-76
2024/01/30 05:22:17;;;;;;;2.83;2.00;;;;;;;5.29;62.36;96809.09;5015102;28;20195;-75
2024/01/30 05:24:43;;;;;;;2.10;1.90;;;;;;;5.18;63.39;96813.19;5014550;28;20195;-76
2024/01/30 05:27:08;;;;;;;2.87;2.30;;;;;;;5.04;63.46;96812.19;5010767;28;20235;-76
2024/01/30 05:29:33;;;;;;;2.00;1.90;;;;;;;4.96;63.83;96813.53;5016040;28;20318;-75
2024/01/30 05:31:59;;;;;;;2.13;1.70;;;;;;;4.99;64.08;96805.63;5017214;28;20217;-76
2024/01/30 05:34:24;;;;;;;2.33;1.93;;;;;;;4.92;64.56;96815.41;4999264;28;20209;-76
2024/01/30 05:36:49;;;;;;;3.20;2.60;;;;;;;4.81;64.60;96815.16;5033144;28;20182;-77
2024/01/30 05:39:15;;;;;;;4.97;2.60;;;;;;;4.76;64.89;96817.97;5032961;28;20210;-76
2024/01/30 05:41:40;;;;;;;5.33;2.90;;;;;;;4.72;65.26;96816.47;5006819;28;20754;-78
2024/01/30 05:44:05;;;;;;;4.03;3.07;;;;;;;4.67;65.20;96821.03;5033293;28;20313;-79
2024/01/30 05:46:31;;;;;;;6.50;4.87;;;;;;;4.65;65.91;96830.56;5002527;28;20178;-76
2024/01/30 05:48:56;;;;;;;7.90;6.20;;;;;;;4.74;65.76;96826.69;5014639;28;20681;-76
2024/01/30 05:51:21;;;;;;;8.67;5.70;;;;;;;4.75;65.67;96828.34;5015885;28;20206;-76
2024/01/30 05:53:47;;;;;;;6.07;4.67;;;;;;;4.77;65.62;96832.53;5014591;28;20190;-76
2024/01/30 05:56:12;;;;;;;6.97;4.17;;;;;;;4.69;65.65;96831.25;5010084;28;20517;-76
2024/01/30 05:58:37;;;;;;;4.50;3.37;;;;;;;4.69;65.77;96828.69;5015064;28;20187;-76
2024/01/30 06:01:07;;;;;;;6.40;3.10;;;;;;;4.64;66.35;96839.22;5031787;28;20229;-75
2024/01/30 06:03:32;;;;;;;3.13;2.20;;;;;;;4.65;65.90;96835.72;5030862;28;20305;-76
2024/01/30 06:05:58;;;;;;;3.23;2.37;;;;;;;4.59;66.14;96832.63;5000972;28;20286;-76
2024/01/30 06:08:23;;;;;;;4.07;2.30;;;;;;;4.60;66.40;96842.88;4999408;28;20274;-76
2024/01/30 06:10:49;;;;;;;4.07;2.10;;;;;;;4.59;66.29;96838.59;5030414;28;20232;-76
2024/01/30 06:13:14;;;;;;;5.97;2.60;;;;;;;4.59;66.41;96842.91;5031679;28;20791;-75
2024/01/30 06:15:40;;;;;;;3.43;2.70;;;;;;;4.54;67.18;96841.44;5029495;28;20867;-76
2024/01/30 06:18:05;;;;;;;3.07;2.60;;;;;;;4.49;66.55;96842.56;5010779;28;20603;-75
2024/01/30 06:20:30;;;;;;;4.17;3.50;;;;;;;4.48;66.64;96838.34;5031697;28;20207;-75
2024/01/30 06:22:56;;;;;;;3.43;2.37;;;;;;;4.45;66.80;96834.19;5014454;28;20170;-76
2024/01/30 06:25:21;;;;;;;3.00;2.40;;;;;;;4.47;66.86;96840.06;5032385;28;20174;-75
2024/01/30 06:27:46;;;;;;;4.03;3.17;;;;;;;4.44;67.32;96834.28;5014792;28;20244;-77
2024/01/30 06:30:12;;;;;;;4.57;4.17;;;;;;;4.44;67.83;96834.28;5014042;28;20189;-76
2024/01/30 06:32:38;;;;;;;4.03;3.63;;;;;;;4.37;67.98;96833.75;5003100;28;20198;-75
2024/01/30 06:35:04;;;;;;;3.57;2.80;;;;;;;4.37;68.62;96838.06;5014505;28;20619;-75
2024/01/30 06:37:29;;;;;;;3.43;3.00;;;;;;;4.33;68.68;96833.97;5005635;28;20208;-75
2024/01/30 06:39:54;;;;;;;3.93;2.80;;;;;;;4.33;68.34;96837.41;5031793;28;20205;-76
2024/01/30 06:42:20;;;;;;;5.33;2.60;;;;;;;4.30;68.18;96829.81;5014026;28;20206;-75
2024/01/30 06:44:45;;;;;;;2.73;2.53;;;;;;;4.25;68.42;96832.63;5032189;28;20182;-75
2024/01/30 06:47:10;;;;;;;4.50;2.80;;;;;;;4.31;68.58;96835.78;5030971;28;20196;-75
2024/01/30 06:49:38;;;;;;;4.03;2.70;;;;;;;4.33;68.21;96839.09;5007756;28;20214;-76
2024/01/30 06:52:05;;;;;;;3.77;2.23;;;;;;;4.34;68.48;96839.06;5031902;28;20195;-76
2024/01/30 06:54:30;;;;;;;3.57;2.37;;;;;;;4.36;68.81;96841.53;5031877;28;20289;-75
2024/01/30 06:56:56;;;;;;;5.07;3.93;;;;;;;4.40;68.24;96843.03;5031698;28;20277;-75
2024/01/30 06:59:21;;;;;;;3.07;2.73;;;;;;;4.44;68.24;96844.56;5013537;28;20182;-75
2024/01/30 07:01:46;;;;;;;3.23;2.70;;;;;;;4.45;68.24;96846.22;5005772;28;20603;-75
2024/01/30 07:04:12;;;;;;;5.37;2.50;;;;;;;4.50;68.42;96833.94;5031022;28;20178;-75
2024/01/30 07:06:37;;;;;;;4.40;3.00;;;;;;;4.55;67.75;96837.13;4997860;28;20190;-75
2024/01/30 07:09:03;;;;;;;3.33;2.57;;;;;;;4.57;67.94;96831.88;5014031;28;20189;-75
2024/01/30 07:11:28;;;;;;;3.07;2.33;;;;;;;4.60;67.74;96832.56;5029982;28;20247;-75
2024/01/30 07:13:55;;;;;;;2.90;2.50;;;;;;;4.62;67.35;96838.47;5013609;28;20182;-76
2024/01/30 07:16:20;;;;;;;6.80;3.00;;;;;;;4.59;67.54;96843.75;5013241;28;20183;-75
2024/01/30 07:18:45;;;;;;;4.67;3.07;;;;;;;4.59;67.50;96836.03;5003378;28;20594;-75
2024/01/30 07:21:12;;;;;;;5.33;2.63;;;;;;;4.65;67.43;96840.03;5028896;28;20217;-75
2024/01/30 07:23:38;;;;;;;5.13;2.27;;;;;;;4.57;67.84;96844.75;5013260;28;20259;-75
2024/01/30 07:26:04;;;;;;;2.03;1.83;;;;;;;4.67;67.09;96841.59;5013368;28;20679;-75
2024/01/30 07:28:30;;;;;;;3.77;1.83;;;;;;;4.73;66.24;96845.63;5031472;28;20190;-76
2024/01/30 07:30:55;;;;;;;4.50;1.80;;;;;;;4.69;65.79;96844.97;5029621;28;20623;-76
2024/01/30 07:33:21;;;;;;;3.30;1.90;;;;;;;4.92;64.98;96848.88;5013853;28;20563;-77
2024/01/30 07:35:46;;;;;;;3.63;1.80;;;;;;;4.99;64.58;96846.81;5006148;28;20947;-77
2024/01/30 07:38:11;;;;;;;2.30;2.00;;;;;;;5.15;63.87;96852.81;5029861;28;20194;-76
2024/01/30 07:40:37;;;;;;;4.37;2.10;;;;;;;5.32;63.30;96855.31;5030752;28;20271;-76
2024/01/30 07:43:03;;;;;;;3.83;2.10;;;;;;;5.42;62.58;96853.06;5012847;28;20194;-77
2024/01/30 07:45:33;;;;;;;3.13;2.17;;;;;;;5.35;63.16;96849.97;5029856;28;20174;-76
2024/01/30 07:47:59;;;;;;;3.73;2.40;;;;;;;5.46;62.88;96853.72;5031042;28;20197;-76
2024/01/30 07:50:25;;;;;;;3.47;2.50;;;;;;;5.42;62.90;96849.66;5030477;28;20217;-76
2024/01/30 07:52:54;;;;;;;2.93;2.10;;;;;;;5.49;62.79;96851.81;5030888;28;20186;-76
2024/01/30 07:56:05;;;;;;;2.40;2.03;;;;;;;5.56;62.61;96852.28;5030959;28;20218;-76
2024/01/30 07:58:30;;;;;;;3.00;2.30;;;;;;;5.59;62.49;96859.84;5010155;28;20281;-76
2024/01/30 08:00:58;;;;;;;3.77;2.57;;;;;;;5.73;61.71;96854.75;5006270;28;20692;-76
2024/01/30 08:03:23;;;;;;;4.83;2.33;;;;;;;5.83;61.35;96855.06;5012660;28;20178;-76
2024/01/30 08:05:51;;;;;;;2.67;1.83;;;;;;;5.99;60.95;96852.47;5008940;28;20692;-76
2024/01/30 08:08:17;;;;;;;4.47;2.10;;;;;;;6.16;59.69;96852.34;5012698;28;20513;-76
2024/01/30 08:10:42;;;;;;;4.07;1.60;;;;;;;6.29;58.95;96848.16;5027156;28;20237;-76
2024/01/30 08:13:08;;;;;;;2.60;1.77;;;;;;;6.52;57.75;96850.19;5030180;28;20190;-76
2024/01/30 08:15:34;;;;;;;3.07;1.63;;;;;;;6.69;57.25;96856.09;5028850;28;20206;-76
2024/01/30 08:17:59;;;;;;;3.10;1.43;;;;;;;6.84;56.64;96855.19;5011420;28;20229;-76
2024/01/30 08:20:25;;;;;;;2.27;1.60;;;;;;;6.93;56.35;96854.63;5010210;28;20203;-77
2024/01/30 08:22:50;;;;;;;2.97;1.60;;;;;;;7.08;55.68;96858.88;5030649;28;20197;-76
2024/01/30 08:25:16;;;;;;;2.17;1.97;;;;;;;7.16;55.11;96857.56;5028357;28;20178;-76
2024/01/30 08:27:41;;;;;;;2.77;2.07;;;;;;;7.23;55.08;96857.06;5013948;28;20615;-76
2024/01/30 08:30:07;;;;;;;2.83;1.80;;;;;;;7.29;55.35;96855.88;5026739;28;20190;-76
2024/01/30 08:32:32;;;;;;;2.23;1.70;;;;;;;7.32;55.57;96866.00;4996257;28;20261;-76
2024/01/30 08:34:58;;;;;;;2.60;1.70;;;;;;;7.38;55.35;96865.63;5029011;28;20210;-77
2024/01/30 08:37:23;;;;;;;1.70;1.60;;;;;;;7.48;55.00;96858.94;5005019;28;20233;-76
2024/01/30 08:39:52;;;;;;;2.20;2.00;;;;;;;7.64;55.27;96861.41;5012131;28;20682;-76
2024/01/30 08:42:22;;;;;;;3.30;1.77;;;;;;;7.79;55.26;96864.78;5012501;28;20308;-76
2024/01/30 08:44:47;;;;;;;2.40;1.80;;;;;;;7.98;55.08;96862.66;5002743;28;20175;-76
2024/01/30 08:47:12;;;;;;;2.60;1.83;;;;;;;8.11;55.12;96860.09;5030133;28;20278;-76
2024/01/30 08:49:38;;;;;;;4.73;2.07;;;;;;;8.27;54.58;96860.75;5030311;28;20183;-76
2024/01/30 08:52:03;;;;;;;3.07;2.03;;;;;;;8.53;54.38;96866.81;5028496;28;20680;-76
2024/01/30 08:54:28;;;;;;;3.80;1.97;;;;;;;8.74;53.95;96864.53;5027224;28;20256;-76
2024/01/30 08:56:56;;;;;;;2.73;2.00;;;;;;;8.93;53.84;96870.13;5030208;28;20575;-77
2024/01/30 08:59:21;;;;;;;2.17;1.80;;;;;;;9.13;53.27;96866.16;5012896;28;20210;-76
2024/01/30 09:01:47;;;;;;;3.33;2.17;;;;;;;9.22;52.19;96872.47;5029207;28;20233;-76
2024/01/30 09:04:12;;;;;;;2.70;2.23;;;;;;;9.33;52.23;96868.19;5032419;28;20190;-77
2024/01/30 09:06:39;;;;;;;2.30;2.00;;;;;;;9.42;52.74;96878.84;5012405;28;20199;-77
2024/01/30 09:09:04;;;;;;;2.53;1.90;;;;;;;9.55;53.25;96877.06;4999840;28;20194;-76
2024/01/30 09:11:30;;;;;;;2.63;2.00;;;;;;;9.52;53.66;96885.03;5028430;28;20205;-76
2024/01/30 09:13:55;;;;;;;1.70;1.60;;;;;;;9.63;53.23;96875.56;5006065;28;20193;-76
2024/01/30 09:16:20;;;;;;;2.63;2.00;;;;;;;9.73;53.54;96875.75;5001751;28;20187;-77
2024/01/30 09:18:46;;;;;;;3.40;1.80;;;;;;;9.78;53.71;96875.41;5012425;28;20207;-77
2024/01/30 09:21:11;;;;;;;3.13;2.17;;;;;;;9.82;53.42;96876.84;5029403;28;20206;-77
2024/01/30 09:23:36;;;;;;;2.17;1.80;;;;;;;9.90;53.86;96875.34;5003023;28;20195;-76
2024/01/30 09:26:01;;;;;;;3.10;1.80;;;;;;;9.89;54.56;96876.31;5028832;28;20186;-77
2024/01/30 09:28:27;;;;;;;2.13;1.80;;;;;;;9.90;54.67;96872.75;4999310;28;20559;-77
2024/01/30 09:30:52;;;;;;;3.43;1.90;;;;;;;9.91;54.66;96873.59;5028080;28;20294;-76
2024/01/30 09:33:17;;;;;;;2.87;1.97;;;;;;;9.85;54.48;96879.22;5011508;28;20301;-76
2024/01/30 09:35:43;;;;;;;3.13;2.30;;;;;;;9.81;54.09;96883.81;5029778;28;20237;-77
2024/01/30 09:38:08;;;;;;;3.30;2.10;;;;;;;9.87;53.96;96887.69;5029984;28;20183;-77
2024/01/30 09:40:33;;;;;;;2.97;1.87;;;;;;;9.94;53.96;96881.97;5011558;28;20279;-77
2024/01/30 09:43:01;;;;;;;3.93;2.50;;;;;;;9.96;53.95;96888.81;5029870;28;20562;-77
2024/01/30 09:45:27;;;;;;;2.87;2.33;;;;;;;9.96;53.66;96892.22;4996048;28;20179;-77
2024/01/30 09:47:52;;;;;;;2.37;2.00;;;;;;;9.99;53.65;96889.44;5033202;28;20316;-77
2024/01/30 09:50:19;;;;;;;2.60;2.10;;;;;;;10.08;53.55;96893.97;5032858;28;20218;-77
2024/01/30 09:52:45;;;;;;;3.27;2.00;;;;;;;10.14;53.38;96901.28;5042185;28;20187;-77
2024/01/30 09:55:10;;;;;;;2.60;2.10;;;;;;;10.25;53.10;96897.94;5031575;28;20221;-77
2024/01/30 09:57:36;;;;;;;4.93;2.30;;;;;;;10.29;52.84;96896.78;5015562;28;20191;-77
2024/01/30 10:00:05;;;;;;;2.60;2.17;;;;;;;10.33;52.46;96900.78;5014848;28;20197;-77
2024/01/30 10:02:31;;;;;;;3.50;2.10;;;;;;;10.43;52.51;96903.56;5024762;28;20182;-77
2024/01/30 10:04:57;;;;;;;2.30;2.00;;;;;;;10.54;52.66;96897.56;5031632;28;20644;-77
2024/01/30 10:07:23;;;;;;;3.27;2.27;;;;;;;10.59;52.75;96901.44;5014477;28;20190;-77
2024/01/30 10:09:49;;;;;;;3.53;2.13;;;;;;;10.76;52.58;96900.19;5005835;28;20178;-77
2024/01/30 10:12:14;;;;;;;3.13;2.23;;;;;;;10.87;52.83;96899.41;5015157;28;20218;-77
2024/01/30 10:14:40;;;;;;;3.70;2.13;;;;;;;10.97;54.02;96898.56;5032575;28;20221;-76
2024/01/30 10:17:08;;;;;;;4.23;2.47;;;;;;;11.12;54.43;96900.94;5012619;28;20727;-77
2024/01/30 10:19:33;;;;;;;4.67;2.77;;;;;;;11.03;55.21;96900.69;5014882;28;20182;-77
2024/01/30 10:22:00;;;;;;;3.40;3.07;;;;;;;11.00;55.40;96900.94;5010645;28;20210;-77
2024/01/30 10:24:26;;;;;;;3.43;3.00;;;;;;;11.21;54.82;96898.44;5014896;28;20206;-76
2024/01/30 10:26:51;;;;;;;4.17;3.23;;;;;;;11.24;54.98;96894.78;5031445;28;20186;-77
2024/01/30 10:29:17;;;;;;;3.87;3.10;;;;;;;11.32;54.71;96897.63;5014815;28;20186;-77
2024/01/30 10:31:42;;;;;;;5.77;3.10;;;;;;;11.45;54.15;96903.53;5040510;28;20207;-77
2024/01/30 10:34:08;;;;;;;5.87;3.50;;;;;;;11.54;53.35;96904.56;5015657;28;20178;-77
2024/01/30 10:36:40;;;;;;;4.47;3.40;;;;;;;11.67;53.22;96900.06;5014893;28;20186;-76
2024/01/30 10:39:06;;;;;;;4.90;3.40;;;;;;;11.64;52.63;96895.91;5013104;28;20226;-76
2024/01/30 10:41:38;;;;;;;6.07;3.47;;;;;;;11.86;51.88;96904.66;5008189;28;20216;-77
2024/01/30 10:44:09;;;;;;;6.50;4.27;;;;;;;11.89;51.20;96886.19;5031161;28;20201;-77
2024/01/30 10:46:35;;;;;;;7.37;3.77;;;;;;;11.95;51.00;96895.31;5014628;28;20190;-77
2024/01/30 10:49:01;;;;;;;4.43;3.10;;;;;;;12.00;50.73;96898.34;5032210;28;20273;-77
2024/01/30 10:51:27;;;;;;;7.97;3.20;;;;;;;12.08;50.28;96888.13;4997628;28;20293;-77
2024/01/30 10:53:53;;;;;;;3.77;2.80;;;;;;;12.08;49.87;96885.53;5001040;28;20274;-78
2024/01/30 10:56:21;;;;;;;3.00;2.70;;;;;;;12.27;49.30;96882.25;5009218;28;20189;-77
2024/01/30 10:58:46;;;;;;;2.30;2.10;;;;;;;12.16;49.30;96889.19;5030848;28;20675;-77
2024/01/30 11:01:12;;;;;;;4.17;2.40;;;;;;;12.29;49.05;96891.63;5013700;28;20237;-77
2024/01/30 11:03:38;;;;;;;3.53;2.47;;;;;;;12.24;49.29;96888.56;5030882;28;20186;-77
2024/01/30 11:06:03;;;;;;;3.33;2.43;;;;;;;12.16;49.25;96883.97;5010957;28;20751;-77
2024/01/30 11:08:32;;;;;;;3.67;2.50;;;;;;;12.35;48.44;96885.06;5014377;28;20183;-77
2024/01/30 11:10:58;;;;;;;2.60;2.30;;;;;;;12.47;47.78;96884.06;5037122;28;20224;-76
2024/01/30 11:13:30;;;;;;;2.77;2.20;;;;;;;12.45;48.13;96883.34;5004000;28;20198;-75
2024/01/30 11:16:03;;;;;;;3.30;2.47;;;;;;;12.32;48.29;96885.31;4995287;28;20215;-75
2024/01/30 11:18:32;;;;;;;2.40;2.20;;;;;;;12.34;48.09;96886.84;5014058;28;20265;-77
2024/01/30 11:20:58;;;;;;;3.13;2.20;;;;;;;12.31;48.53;96879.28;5026264;28;20207;-75
2024/01/30 11:23:26;;;;;;;2.53;2.20;;;;;;;12.42;48.78;96881.00;4997542;28;20190;-77
2024/01/30 11:25:52;;;;;;;3.30;2.27;;;;;;;12.54;48.37;96881.75;4990008;28;20636;-75
2024/01/30 11:28:18;;;;;;;2.47;2.27;;;;;;;12.41;48.34;96881.97;5031588;28;20220;-76
2024/01/30 11:30:44;;;;;;;4.07;2.40;;;;;;;12.46;48.38;96887.63;5002009;28;20207;-75
2024/01/30 11:33:11;;;;;;;2.50;2.20;;;;;;;12.50;47.71;96883.00;5030047;28;20182;-77
2024/01/30 11:35:43;;;;;;;6.03;3.97;;;;;;;12.44;48.35;96879.91;5013403;28;20207;-75